Terminal Aerodrome Forecast
Issued by NWS Cleveland, OH

Home | Current Version | Previous Version | Graphics & Text | Print | Product List | Glossary On
Versions: 1 2 3 4 5 6 7 8 9 10 11 12 13 14 15 16 17 18 19 20 21 22 23 24 25
000
FTUS41 KCLE 241700
TAFMFD
TAF
KMFD 241733Z 2418/2518 24006KT P6SM SKC
     FM250600 22006KT P6SM BKN050
     FM251200 21009KT 5SM BR OVC015
     FM251400 23011KT P6SM OVC015=

USA.gov is the U.S. government's official web portal to all federal, state and local government web resources and services.